createdAt,value
2022-08-17T00:00:33.252Z,100465.66
2022-08-17T00:03:19.408Z,100473.34
2022-08-17T00:06:13.668Z,100469.97
2022-08-17T00:08:48.498Z,100475.44
2022-08-17T00:11:19.598Z,100480.28
2022-08-17T00:13:50.351Z,100474.78
2022-08-17T00:16:56.169Z,100473.09
2022-08-17T00:19:13.393Z,100469.47
2022-08-17T00:22:32.857Z,100473.34
2022-08-17T00:24:33.131Z,100473.25
2022-08-17T00:26:59.725Z,100479.59
2022-08-17T00:29:26.365Z,100471.63
2022-08-17T00:31:53.816Z,100472.50
2022-08-17T00:34:20.658Z,100475.25
2022-08-17T00:36:47.266Z,100476.38
2022-08-17T00:39:14.855Z,100481.94
2022-08-17T00:41:42.571Z,100481.19
2022-08-17T00:44:09.727Z,100488.72
2022-08-17T00:46:41.017Z,100486.19
2022-08-17T00:49:11.389Z,100488.84
2022-08-17T00:51:56.760Z,100485.31
2022-08-17T00:54:31.011Z,100480.94
2022-08-17T00:57:07.136Z,100478.25
2022-08-17T01:00:02.943Z,100481.16
2022-08-17T01:02:41.479Z,100482.28
2022-08-17T01:05:19.776Z,100474.28
2022-08-17T01:07:52.301Z,100484.44
2022-08-17T01:10:57.254Z,100477.91
2022-08-17T01:13:14.054Z,100479.53
2022-08-17T01:15:46.408Z,100474.28
2022-08-17T01:18:14.655Z,100473.63
2022-08-17T01:20:48.748Z,100476.56
2022-08-17T01:23:20.474Z,100483.09
2022-08-17T01:26:01.765Z,100492.41
2022-08-17T01:28:52.477Z,100489.91
2022-08-17T01:31:19.698Z,100491.97
2022-08-17T01:33:46.405Z,100483.75
2022-08-17T01:36:13.270Z,100490.44
2022-08-17T01:38:40.318Z,100494.19
2022-08-17T01:41:13.498Z,100489.72
2022-08-17T01:43:53.893Z,100481.59
2022-08-17T01:46:27.159Z,100486.06
2022-08-17T01:48:56.256Z,100485.28
2022-08-17T01:51:27.779Z,100480.09
2022-08-17T01:53:58.190Z,100480.09
2022-08-17T01:56:27.787Z,100485.88
2022-08-17T01:58:54.910Z,100488.66
2022-08-17T02:01:28.918Z,100476.97
2022-08-17T02:04:00.741Z,100476.03
2022-08-17T02:06:31.472Z,100474.16
2022-08-17T02:09:16.919Z,100482.72
2022-08-17T02:11:44.721Z,100482.88
2022-08-17T02:14:13.407Z,100487.75
2022-08-17T02:16:41.122Z,100483.38
2022-08-17T02:19:11.863Z,100480.63
2022-08-17T02:21:40.001Z,100472.34
2022-08-17T02:24:10.930Z,100474.13
2022-08-17T02:26:37.605Z,100477.81
2022-08-17T02:29:04.365Z,100476.31
2022-08-17T02:31:33.717Z,100476.31
2022-08-17T02:34:04.687Z,100473.66
2022-08-17T02:36:36.084Z,100479.34
2022-08-17T02:39:05.732Z,100471.41
2022-08-17T02:41:32.496Z,100474.22
2022-08-17T02:44:02.379Z,100475.25
2022-08-17T02:46:30.370Z,100481.81
2022-08-17T02:48:57.502Z,100473.75
2022-08-17T02:51:24.901Z,100470.09
2022-08-17T02:53:52.129Z,100472.91
2022-08-17T02:56:18.733Z,100464.88
2022-08-17T02:58:46.425Z,100470.19
2022-08-17T03:01:13.605Z,100477.59
2022-08-17T03:03:40.583Z,100475.81
2022-08-17T03:06:08.126Z,100477.69
2022-08-17T03:08:37.386Z,100473.25
2022-08-17T03:11:04.307Z,100478.69
2022-08-17T03:13:31.007Z,100485.09
2022-08-17T03:15:57.871Z,100478.88
2022-08-17T03:18:26.377Z,100474.41
2022-08-17T03:20:59.420Z,100488.22
2022-08-17T03:23:27.731Z,100493.78
2022-08-17T03:25:57.078Z,100490.34
2022-08-17T03:28:24.186Z,100491.22
2022-08-17T03:30:51.706Z,100490.53
2022-08-17T03:33:19.310Z,100495.13
2022-08-17T03:35:46.635Z,100491.72
2022-08-17T03:38:16.984Z,100487.28
2022-08-17T03:40:56.705Z,100489.31
2022-08-17T03:43:29.440Z,100486.78
2022-08-17T03:46:28.943Z,100483.22
2022-08-17T03:49:25.486Z,100482.53
2022-08-17T03:52:12.264Z,100483.50
2022-08-17T03:54:58.442Z,100480.88
2022-08-17T03:57:27.138Z,100479.84
2022-08-17T03:59:55.199Z,100478.16
2022-08-17T04:02:26.774Z,100479.09
2022-08-17T04:04:54.198Z,100482.88
2022-08-17T04:07:23.341Z,100472.97
2022-08-17T04:09:51.292Z,100480.19
2022-08-17T04:12:19.759Z,100478.47
2022-08-17T04:14:53.699Z,100474.72
2022-08-17T04:17:27.384Z,100474.84
2022-08-17T04:19:55.204Z,100477.44
2022-08-17T04:22:32.258Z,100476.63
2022-08-17T04:25:20.121Z,100480.31
2022-08-17T04:27:48.670Z,100491.25
2022-08-17T04:30:15.794Z,100487.41
2022-08-17T04:33:03.435Z,100489.44
2022-08-17T04:35:49.144Z,100489.59
2022-08-17T04:38:25.263Z,100490.66
2022-08-17T04:41:11.518Z,100489.97
2022-08-17T04:43:43.008Z,100498.28
2022-08-17T04:46:17.048Z,100491.84
2022-08-17T04:48:46.423Z,100501.72
2022-08-17T04:51:18.516Z,100505.34
2022-08-17T04:53:53.909Z,100500.00
2022-08-17T04:56:22.500Z,100497.22
2022-08-17T04:58:51.658Z,100507.22
2022-08-17T05:01:23.664Z,100509.78
2022-08-17T05:03:57.115Z,100515.25
2022-08-17T05:06:23.859Z,100509.78
2022-08-17T05:08:50.760Z,100519.78
2022-08-17T05:11:17.646Z,100515.13
2022-08-17T05:13:44.701Z,100526.03
2022-08-17T05:16:12.002Z,100533.06
2022-08-17T05:18:39.047Z,100533.78
2022-08-17T05:21:06.926Z,100530.13
2022-08-17T05:23:42.515Z,100525.44
2022-08-17T05:26:25.819Z,100528.88
2022-08-17T05:29:00.335Z,100528.72
2022-08-17T05:31:29.631Z,100530.38
2022-08-17T05:33:56.620Z,100533.81
2022-08-17T05:36:41.861Z,100533.66
2022-08-17T05:39:14.379Z,100537.09
2022-08-17T05:41:43.477Z,100536.13
2022-08-17T05:44:10.794Z,100536.88
2022-08-17T05:46:41.919Z,100534.84
2022-08-17T05:49:09.474Z,100539.09
2022-08-17T05:51:51.401Z,100539.78
2022-08-17T05:54:36.777Z,100540.31
2022-08-17T05:57:28.446Z,100539.09
2022-08-17T06:00:03.882Z,100544.16
2022-08-17T06:02:54.698Z,100534.75
2022-08-17T06:05:40.274Z,100538.16
2022-08-17T06:08:20.656Z,100548.81
2022-08-17T06:11:02.260Z,100545.59
2022-08-17T06:13:42.186Z,100550.63
2022-08-17T06:16:34.397Z,100540.31
2022-08-17T06:19:24.444Z,100538.00
2022-08-17T06:21:55.800Z,100548.53
2022-08-17T06:24:37.769Z,100548.09
2022-08-17T06:27:30.358Z,100549.50
2022-08-17T06:30:09.367Z,100542.03
2022-08-17T06:32:42.697Z,100549.88
2022-08-17T06:35:12.728Z,100552.22
2022-08-17T06:38:37.178Z,100544.66
2022-08-17T06:41:22.397Z,100537.50
2022-08-17T06:44:42.294Z,100548.16
2022-08-17T06:47:28.155Z,100538.72
2022-08-17T06:50:05.456Z,100540.16
2022-08-17T06:52:55.529Z,100536.72
2022-08-17T06:55:37.915Z,100533.75
2022-08-17T06:58:15.822Z,100539.06
2022-08-17T07:00:47.250Z,100532.91
2022-08-17T07:03:37.781Z,100530.03
2022-08-17T07:06:24.978Z,100526.88
2022-08-17T07:08:59.129Z,100536.63
2022-08-17T07:11:50.462Z,100533.25
2022-08-17T07:14:38.293Z,100535.78
2022-08-17T07:17:13.943Z,100529.00
2022-08-17T07:19:44.001Z,100533.75
2022-08-17T07:22:26.132Z,100531.03
2022-08-17T07:24:59.579Z,100528.13
2022-08-17T07:27:27.742Z,100524.06
2022-08-17T07:30:01.710Z,100539.13
2022-08-17T07:32:34.307Z,100534.97
2022-08-17T07:35:15.857Z,100538.84
2022-08-17T07:37:53.012Z,100532.75
2022-08-17T07:40:28.128Z,100545.94
2022-08-17T07:43:23.190Z,100536.88
2022-08-17T07:46:15.629Z,100544.97
2022-08-17T07:48:46.337Z,100539.91
2022-08-17T07:51:36.135Z,100546.78
2022-08-17T07:54:22.579Z,100553.41
2022-08-17T07:57:12.791Z,100550.16
2022-08-17T07:59:43.168Z,100553.44
2022-08-17T08:02:29.536Z,100557.16
2022-08-17T08:05:12.797Z,100551.13
2022-08-17T08:07:53.666Z,100559.75
2022-08-17T08:10:45.565Z,100561.44
2022-08-17T08:13:24.966Z,100556.38
2022-08-17T08:15:55.337Z,100556.28
2022-08-17T08:18:53.405Z,100554.81
2022-08-17T08:21:24.270Z,100571.38
2022-08-17T08:24:36.604Z,100567.72
2022-08-17T08:27:30.610Z,100577.09
2022-08-17T08:30:06.409Z,100572.47
2022-08-17T08:32:51.246Z,100565.00
2022-08-17T08:35:30.760Z,100564.19
2022-08-17T08:38:14.731Z,100573.09
2022-08-17T08:41:16.446Z,100560.47
2022-08-17T08:43:53.121Z,100556.06
2022-08-17T08:46:50.958Z,100561.66
2022-08-17T08:50:03.568Z,100564.19
2022-08-17T08:52:39.942Z,100565.41
2022-08-17T08:55:16.919Z,100557.59
2022-08-17T08:58:01.668Z,100564.50
2022-08-17T09:00:35.746Z,100569.03
2022-08-17T09:03:11.373Z,100576.88
2022-08-17T09:06:37.776Z,100568.66
2022-08-17T09:09:29.398Z,100570.81
2022-08-17T09:12:07.904Z,100566.75
2022-08-17T09:14:49.518Z,100568.66
2022-08-17T09:17:21.156Z,100568.63
2022-08-17T09:20:05.775Z,100567.63
2022-08-17T09:22:38.551Z,100568.53
2022-08-17T09:25:09.041Z,100570.78
2022-08-17T09:28:00.557Z,100578.31
2022-08-17T09:30:38.959Z,100578.31
2022-08-17T09:33:08.613Z,100572.25
2022-08-17T09:35:44.521Z,100568.38
2022-08-17T09:38:50.202Z,100566.00
2022-08-17T09:41:48.716Z,100568.31
2022-08-17T09:44:29.470Z,100576.03
2022-08-17T09:47:08.039Z,100571.13
2022-08-17T09:49:51.180Z,100568.63
2022-08-17T09:52:25.562Z,100562.25
2022-08-17T09:54:54.511Z,100564.78
2022-08-17T09:57:32.465Z,100552.34
2022-08-17T10:00:12.134Z,100559.13
2022-08-17T10:03:00.648Z,100556.69
2022-08-17T10:05:39.716Z,100552.28
2022-08-17T10:08:15.088Z,100548.03
2022-08-17T10:10:56.632Z,100549.03
2022-08-17T10:13:59.600Z,100551.41
2022-08-17T10:16:47.486Z,100553.16
2022-08-17T10:19:35.362Z,100547.09
2022-08-17T10:22:34.692Z,100546.22
2022-08-17T10:25:27.857Z,100553.84
2022-08-17T10:28:19.737Z,100536.81
2022-08-17T10:31:16.714Z,100537.69
2022-08-17T10:33:57.643Z,100526.47
2022-08-17T10:36:39.885Z,100530.88
2022-08-17T10:39:20.551Z,100525.59
2022-08-17T10:41:51.067Z,100532.22
2022-08-17T10:44:40.164Z,100525.44
2022-08-17T10:47:17.027Z,100521.00
2022-08-17T10:49:53.891Z,100526.06
2022-08-17T10:52:25.967Z,100533.50
2022-08-17T10:54:54.902Z,100526.13
2022-08-17T10:57:31.834Z,100528.00
2022-08-17T11:00:06.953Z,100522.94
2022-08-17T11:02:50.295Z,100519.59
2022-08-17T11:05:22.297Z,100516.72
2022-08-17T11:08:07.196Z,100519.59
2022-08-17T11:11:01.876Z,100515.25
2022-08-17T11:13:45.923Z,100506.72
2022-08-17T11:16:36.178Z,100504.41
2022-08-17T11:19:32.154Z,100510.34
2022-08-17T11:22:17.875Z,100504.53
2022-08-17T11:24:51.215Z,100504.53
2022-08-17T11:27:34.234Z,100505.13
2022-08-17T11:30:09.166Z,100508.34
2022-08-17T11:32:48.711Z,100508.63
2022-08-17T11:35:23.060Z,100503.69
2022-08-17T11:38:14.027Z,100493.84
2022-08-17T11:41:03.230Z,100495.31
2022-08-17T11:43:37.390Z,100498.25
2022-08-17T11:46:16.727Z,100496.91
2022-08-17T11:49:13.801Z,100494.75
2022-08-17T11:52:04.880Z,100496.94
2022-08-17T11:54:48.398Z,100504.72
2022-08-17T11:57:29.501Z,100495.78
2022-08-17T12:00:11.542Z,100503.13
2022-08-17T12:02:48.910Z,100501.34
2022-08-17T12:05:20.983Z,100504.28
2022-08-17T12:07:52.670Z,100498.56
2022-08-17T12:10:23.919Z,100497.22
2022-08-17T12:12:53.825Z,100501.19
2022-08-17T12:15:31.216Z,100498.09
2022-08-17T12:17:58.727Z,100492.53
2022-08-17T12:20:30.862Z,100496.91
2022-08-17T12:23:09.832Z,100496.03
2022-08-17T12:25:49.326Z,100489.31
2022-08-17T12:28:22.751Z,100487.84
2022-08-17T12:30:52.140Z,100499.72
2022-08-17T12:33:25.641Z,100491.34
2022-08-17T12:36:03.233Z,100487.25
2022-08-17T12:38:34.409Z,100486.78
2022-08-17T12:41:22.298Z,100482.53
2022-08-17T12:44:02.304Z,100481.69
2022-08-17T12:46:34.765Z,100483.13
2022-08-17T12:49:28.849Z,100469.31
2022-08-17T12:52:11.765Z,100474.59
2022-08-17T12:54:42.653Z,100474.88
2022-08-17T12:57:15.073Z,100468.44
2022-08-17T12:59:45.851Z,100462.22
2022-08-17T13:02:30.376Z,100460.16
2022-08-17T13:05:00.344Z,100466.34
2022-08-17T13:07:29.687Z,100463.97
2022-08-17T13:09:56.746Z,100452.06
2022-08-17T13:12:33.353Z,100451.31
2022-08-17T13:15:00.242Z,100451.00
2022-08-17T13:17:31.834Z,100449.22
2022-08-17T13:19:58.879Z,100443.97
2022-08-17T13:22:27.768Z,100454.25
2022-08-17T13:24:58.368Z,100447.78
2022-08-17T13:27:27.859Z,100449.84
2022-08-17T13:30:00.043Z,100448.81
2022-08-17T13:32:37.281Z,100443.63
2022-08-17T13:35:32.454Z,100441.59
2022-08-17T13:38:39.364Z,100443.34
2022-08-17T13:41:07.424Z,100435.38
2022-08-17T13:43:48.390Z,100439.50
2022-08-17T13:46:31.309Z,100437.44
2022-08-17T13:49:11.956Z,100436.09
2022-08-17T13:51:51.770Z,100437.09
2022-08-17T13:54:30.657Z,100433.81
2022-08-17T13:57:05.039Z,100436.59
2022-08-17T13:59:54.278Z,100425.78
2022-08-17T14:02:26.068Z,100423.84
2022-08-17T14:04:56.478Z,100423.69
2022-08-17T14:07:31.107Z,100417.41
2022-08-17T14:10:12.977Z,100422.09
2022-08-17T14:12:43.569Z,100411.81
2022-08-17T14:15:14.005Z,100412.69
2022-08-17T14:17:40.912Z,100409.03
2022-08-17T14:20:12.275Z,100410.06
2022-08-17T14:22:43.988Z,100414.78
2022-08-17T14:25:13.878Z,100408.63
2022-08-17T14:27:52.647Z,100410.66
2022-08-17T14:30:24.004Z,100411.84
2022-08-17T14:32:52.265Z,100398.31
2022-08-17T14:35:22.610Z,100400.66
2022-08-17T14:37:50.757Z,100400.41
2022-08-17T14:40:24.471Z,100399.81
2022-08-17T14:42:53.034Z,100399.25
2022-08-17T14:45:30.186Z,100404.28
2022-08-17T14:48:07.564Z,100397.56
2022-08-17T14:50:36.231Z,100394.34
2022-08-17T14:53:05.419Z,100395.69
2022-08-17T14:55:32.587Z,100399.13
2022-08-17T14:57:59.443Z,100403.53
2022-08-17T15:00:26.792Z,100405.47
2022-08-17T15:02:58.926Z,100405.31
2022-08-17T15:05:31.354Z,100407.34
2022-08-17T15:07:58.774Z,100407.34
2022-08-17T15:10:26.053Z,100396.53
2022-08-17T15:12:52.882Z,100402.66
2022-08-17T15:15:19.942Z,100395.97
2022-08-17T15:17:46.538Z,100408.06
2022-08-17T15:20:20.728Z,100407.50
2022-08-17T15:22:55.934Z,100393.88
2022-08-17T15:25:28.060Z,100402.13
2022-08-17T15:27:55.790Z,100431.22
2022-08-17T15:30:23.396Z,100474.19
2022-08-17T15:32:54.977Z,100482.41
2022-08-17T15:35:30.104Z,100464.75
2022-08-17T15:38:10.150Z,100481.34
2022-08-17T15:40:42.039Z,100483.06
2022-08-17T15:43:16.416Z,100484.28
2022-08-17T15:45:43.887Z,100482.28
2022-08-17T15:48:11.276Z,100470.47
2022-08-17T15:50:37.943Z,100472.13
2022-08-17T15:53:05.786Z,100451.94
2022-08-17T15:55:33.361Z,100438.44
2022-08-17T15:58:00.802Z,100435.84
2022-08-17T16:00:30.370Z,100426.78
2022-08-17T16:03:44.451Z,100432.53
2022-08-17T16:05:46.500Z,100425.69
2022-08-17T16:08:18.488Z,100444.50
2022-08-17T16:10:47.966Z,100433.69
2022-08-17T16:13:17.335Z,100438.13
2022-08-17T16:15:56.691Z,100435.47
2022-08-17T16:18:31.176Z,100416.25
2022-08-17T16:21:19.695Z,100416.25
2022-08-17T16:23:49.119Z,100399.91
2022-08-17T16:26:16.171Z,100386.19
2022-08-17T16:28:42.854Z,100385.56
2022-08-17T16:31:09.586Z,100388.31
2022-08-17T16:33:38.946Z,100400.34
2022-08-17T16:36:07.338Z,100416.69
2022-08-17T16:38:38.501Z,100414.72
2022-08-17T16:41:06.392Z,100426.44
2022-08-17T16:43:33.997Z,100437.38
2022-08-17T16:46:01.079Z,100419.78
2022-08-17T16:48:28.881Z,100429.63
2022-08-17T16:51:02.077Z,100419.56
2022-08-17T16:53:33.183Z,100427.84
2022-08-17T16:55:59.814Z,100423.22
2022-08-17T16:58:26.444Z,100413.25
2022-08-17T17:00:54.382Z,100416.16
2022-08-17T17:03:25.815Z,100413.38
2022-08-17T17:06:09.614Z,100420.31
2022-08-17T17:08:49.327Z,100420.00
2022-08-17T17:11:43.090Z,100416.88
2022-08-17T17:14:15.520Z,100418.44
2022-08-17T17:16:51.145Z,100412.69
2022-08-17T17:19:34.540Z,100412.63
2022-08-17T17:22:16.486Z,100405.00
2022-08-17T17:25:13.641Z,100402.09
2022-08-17T17:27:59.741Z,100397.91
2022-08-17T17:30:37.203Z,100394.13
2022-08-17T17:33:17.725Z,100395.69
2022-08-17T17:35:55.402Z,100397.81
2022-08-17T17:38:29.161Z,100396.31
2022-08-17T17:41:04.398Z,100401.31
2022-08-17T17:43:39.934Z,100404.06
2022-08-17T17:46:27.637Z,100417.88
2022-08-17T17:48:57.447Z,100410.50
2022-08-17T17:52:06.744Z,100418.00
2022-08-17T17:54:55.740Z,100434.44
2022-08-17T17:58:07.895Z,100426.41
2022-08-17T18:00:53.988Z,100422.97
2022-08-17T18:03:56.156Z,100437.13
2022-08-17T18:06:36.898Z,100431.16
2022-08-17T18:09:40.821Z,100436.25
2022-08-17T18:12:35.087Z,100444.97
2022-08-17T18:15:18.463Z,100453.50
2022-08-17T18:18:02.261Z,100450.28
2022-08-17T18:20:36.061Z,100443.22
2022-08-17T18:23:10.122Z,100444.53
2022-08-17T18:25:51.638Z,100447.63
2022-08-17T18:28:25.255Z,100449.69
2022-08-17T18:31:15.322Z,100459.09
2022-08-17T18:33:48.449Z,100449.16
2022-08-17T18:36:30.790Z,100449.31
2022-08-17T18:39:11.968Z,100451.31
2022-08-17T18:41:45.102Z,100435.97
2022-08-17T18:44:42.343Z,100431.66
2022-08-17T18:47:15.852Z,100427.44
2022-08-17T18:49:49.973Z,100441.56
2022-08-17T18:52:23.502Z,100440.03
2022-08-17T18:55:02.766Z,100445.84
2022-08-17T18:57:39.544Z,100444.63
2022-08-17T19:00:16.923Z,100447.88
2022-08-17T19:03:00.536Z,100436.63
2022-08-17T19:05:41.277Z,100440.75
2022-08-17T19:08:18.515Z,100441.38
2022-08-17T19:10:47.895Z,100441.97
2022-08-17T19:13:24.505Z,100448.09
2022-08-17T19:16:14.231Z,100441.31
2022-08-17T19:18:59.740Z,100446.63
2022-08-17T19:21:48.114Z,100449.94
2022-08-17T19:24:21.180Z,100450.31
2022-08-17T19:27:11.711Z,100449.72
2022-08-17T19:29:57.570Z,100455.72
2022-08-17T19:32:29.090Z,100454.16
2022-08-17T19:34:56.777Z,100449.81
2022-08-17T19:37:38.671Z,100446.47
2022-08-17T19:40:35.105Z,100452.28
2022-08-17T19:43:32.071Z,100457.09
2022-08-17T19:46:14.066Z,100452.63
2022-08-17T19:49:10.060Z,100447.34
2022-08-17T19:51:36.846Z,100451.25
2022-08-17T19:54:20.327Z,100443.28
2022-08-17T19:57:12.130Z,100434.34
2022-08-17T19:59:59.333Z,100433.91
2022-08-17T20:02:57.957Z,100439.63
2022-08-17T20:06:01.450Z,100440.81
2022-08-17T20:08:34.799Z,100436.47
2022-08-17T20:11:10.508Z,100429.38
2022-08-17T20:13:50.788Z,100442.34
2022-08-17T20:16:19.306Z,100442.34
2022-08-17T20:19:32.596Z,100440.41
2022-08-17T20:22:29.014Z,100434.50
2022-08-17T20:25:30.726Z,100438.41
2022-08-17T20:28:22.320Z,100436.03
2022-08-17T20:30:52.329Z,100445.63
2022-08-17T20:33:38.286Z,100460.72
2022-08-17T20:36:05.050Z,100451.94
2022-08-17T20:38:56.036Z,100459.44
2022-08-17T20:41:28.967Z,100458.78
2022-08-17T20:43:58.999Z,100456.47
2022-08-17T20:46:38.084Z,100452.22
2022-08-17T20:49:10.860Z,100453.09
2022-08-17T20:52:09.504Z,100454.56
2022-08-17T20:54:50.102Z,100449.66
2022-08-17T20:57:32.066Z,100459.25
2022-08-17T21:00:19.260Z,100465.53
2022-08-17T21:02:51.242Z,100460.03
2022-08-17T21:06:09.419Z,100469.56
2022-08-17T21:09:16.066Z,100470.72
2022-08-17T21:12:05.749Z,100465.47
2022-08-17T21:14:56.384Z,100464.75
2022-08-17T21:17:40.023Z,100456.78
2022-08-17T21:20:32.419Z,100461.53
2022-08-17T21:23:08.928Z,100472.84
2022-08-17T21:26:04.970Z,100462.78
2022-08-17T21:29:30.158Z,100473.03
2022-08-17T21:32:03.784Z,100470.38
2022-08-17T21:34:37.941Z,100477.88
2022-08-17T21:37:19.839Z,100475.31
2022-08-17T21:39:52.304Z,100484.69
2022-08-17T21:42:29.662Z,100490.31
2022-08-17T21:45:00.427Z,100487.91
2022-08-17T21:47:29.855Z,100488.88
2022-08-17T21:50:24.285Z,100477.16
2022-08-17T21:52:54.587Z,100485.41
2022-08-17T21:55:29.745Z,100471.84
2022-08-17T21:58:11.470Z,100476.38
2022-08-17T22:01:12.142Z,100477.34
2022-08-17T22:03:47.411Z,100473.72
2022-08-17T22:06:23.865Z,100488.53
2022-08-17T22:09:09.309Z,100487.75
2022-08-17T22:11:56.341Z,100475.97
2022-08-17T22:14:53.369Z,100473.41
2022-08-17T22:17:18.325Z,100473.56
2022-08-17T22:19:50.105Z,100473.66
2022-08-17T22:22:34.441Z,100466.38
2022-08-17T22:25:06.239Z,100473.88
2022-08-17T22:27:52.047Z,100490.69
2022-08-17T22:30:30.869Z,100494.69
2022-08-17T22:33:00.137Z,100497.69
2022-08-17T22:35:36.184Z,100499.81
2022-08-17T22:38:18.022Z,100503.03
2022-08-17T22:40:50.990Z,100501.44
2022-08-17T22:43:21.211Z,100504.53
2022-08-17T22:45:55.734Z,100501.88
2022-08-17T22:48:26.709Z,100521.34
2022-08-17T22:51:12.465Z,100524.25
2022-08-17T22:54:09.159Z,100540.69
2022-08-17T22:56:54.894Z,100540.53
2022-08-17T22:59:41.883Z,100543.34
2022-08-17T23:02:27.517Z,100560.66
2022-08-17T23:05:11.942Z,100558.75
2022-08-17T23:07:45.070Z,100547.78
2022-08-17T23:10:15.079Z,100546.88
2022-08-17T23:12:46.001Z,100546.00
2022-08-17T23:15:19.145Z,100537.28
2022-08-17T23:17:46.394Z,100539.28
2022-08-17T23:20:15.563Z,100541.13
2022-08-17T23:22:44.677Z,100547.50
2022-08-17T23:25:28.014Z,100542.25
2022-08-17T23:27:57.330Z,100542.25
2022-08-17T23:30:25.544Z,100541.25
2022-08-17T23:32:54.314Z,100520.41
2022-08-17T23:35:39.212Z,100522.31
2022-08-17T23:38:12.917Z,100522.03
2022-08-17T23:40:40.697Z,100526.03
2022-08-17T23:43:24.448Z,100522.47
2022-08-17T23:45:54.613Z,100524.41
2022-08-17T23:48:35.193Z,100526.31
2022-08-17T23:51:08.534Z,100528.25
2022-08-17T23:53:36.627Z,100523.66
2022-08-17T23:56:09.079Z,100529.13
2022-08-17T23:58:38.414Z,100530.03
